sensor_id;sensor_type;location;lat;lon;timestamp;temperature;humidity
75010;DHT22;63564;46.840;18.336;2023-04-24T00:02:56;14.76;57.69
75010;DHT22;63564;46.840;18.336;2023-04-24T00:05:57;14.75;57.51
75010;DHT22;63564;46.840;18.336;2023-04-24T00:09:00;14.80;57.27
75010;DHT22;63564;46.840;18.336;2023-04-24T00:12:01;14.83;57.36
75010;DHT22;63564;46.840;18.336;2023-04-24T00:15:04;14.91;56.37
75010;DHT22;63564;46.840;18.336;2023-04-24T00:18:05;14.77;57.91
75010;DHT22;63564;46.840;18.336;2023-04-24T00:21:05;14.83;56.90
75010;DHT22;63564;46.840;18.336;2023-04-24T00:24:06;14.77;57.89
75010;DHT22;63564;46.840;18.336;2023-04-24T00:27:09;14.87;55.86
75010;DHT22;63564;46.840;18.336;2023-04-24T00:30:09;14.87;55.47
75010;DHT22;63564;46.840;18.336;2023-04-24T00:33:10;14.77;57.02
75010;DHT22;63564;46.840;18.336;2023-04-24T00:36:10;14.72;56.70
75010;DHT22;63564;46.840;18.336;2023-04-24T00:39:10;14.75;56.54
75010;DHT22;63564;46.840;18.336;2023-04-24T00:42:11;14.75;56.91
75010;DHT22;63564;46.840;18.336;2023-04-24T00:45:12;14.73;57.39
75010;DHT22;63564;46.840;18.336;2023-04-24T00:48:13;14.65;57.66
75010;DHT22;63564;46.840;18.336;2023-04-24T00:51:14;14.63;57.90
75010;DHT22;63564;46.840;18.336;2023-04-24T00:54:15;14.62;57.31
75010;DHT22;63564;46.840;18.336;2023-04-24T00:57:16;14.56;57.74
75010;DHT22;63564;46.840;18.336;2023-04-24T01:00:16;14.66;56.91
75010;DHT22;63564;46.840;18.336;2023-04-24T01:03:17;14.62;57.50
75010;DHT22;63564;46.840;18.336;2023-04-24T01:06:18;14.73;56.64
75010;DHT22;63564;46.840;18.336;2023-04-24T01:09:21;14.70;57.66
75010;DHT22;63564;46.840;18.336;2023-04-24T01:12:23;14.57;58.44
75010;DHT22;63564;46.840;18.336;2023-04-24T01:15:23;14.65;58.05
75010;DHT22;63564;46.840;18.336;2023-04-24T01:18:24;14.67;57.31
75010;DHT22;63564;46.840;18.336;2023-04-24T01:21:26;14.70;57.14
75010;DHT22;63564;46.840;18.336;2023-04-24T01:24:28;14.30;60.60
75010;DHT22;63564;46.840;18.336;2023-04-24T01:27:29;14.26;61.46
75010;DHT22;63564;46.840;18.336;2023-04-24T01:30:30;14.30;60.55
75010;DHT22;63564;46.840;18.336;2023-04-24T01:33:31;14.33;61.86
75010;DHT22;63564;46.840;18.336;2023-04-24T01:36:32;14.28;61.06
75010;DHT22;63564;46.840;18.336;2023-04-24T01:39:33;14.26;60.13
75010;DHT22;63564;46.840;18.336;2023-04-24T01:42:34;14.38;59.91
75010;DHT22;63564;46.840;18.336;2023-04-24T01:45:34;14.33;60.31
75010;DHT22;63564;46.840;18.336;2023-04-24T01:48:35;14.04;62.15
75010;DHT22;63564;46.840;18.336;2023-04-24T01:51:36;14.07;61.02
75010;DHT22;63564;46.840;18.336;2023-04-24T01:54:36;14.09;61.10
75010;DHT22;63564;46.840;18.336;2023-04-24T01:57:37;14.05;61.63
75010;DHT22;63564;46.840;18.336;2023-04-24T02:00:37;14.17;60.94
75010;DHT22;63564;46.840;18.336;2023-04-24T02:03:37;14.07;61.67
75010;DHT22;63564;46.840;18.336;2023-04-24T02:06:38;14.04;61.74
75010;DHT22;63564;46.840;18.336;2023-04-24T02:09:38;14.14;61.00
75010;DHT22;63564;46.840;18.336;2023-04-24T02:12:38;14.05;62.36
75010;DHT22;63564;46.840;18.336;2023-04-24T02:15:39;14.12;61.79
75010;DHT22;63564;46.840;18.336;2023-04-24T02:18:39;14.08;62.34
75010;DHT22;63564;46.840;18.336;2023-04-24T02:21:40;14.07;62.23
75010;DHT22;63564;46.840;18.336;2023-04-24T02:24:40;14.09;62.22
75010;DHT22;63564;46.840;18.336;2023-04-24T02:27:40;14.15;61.52
75010;DHT22;63564;46.840;18.336;2023-04-24T02:30:41;14.11;61.69
75010;DHT22;63564;46.840;18.336;2023-04-24T02:33:41;14.09;61.59
75010;DHT22;63564;46.840;18.336;2023-04-24T02:36:42;14.07;61.52
75010;DHT22;63564;46.840;18.336;2023-04-24T02:39:42;14.04;61.57
75010;DHT22;63564;46.840;18.336;2023-04-24T02:42:42;14.11;61.52
75010;DHT22;63564;46.840;18.336;2023-04-24T02:45:43;14.22;60.79
75010;DHT22;63564;46.840;18.336;2023-04-24T02:48:43;14.14;61.46
75010;DHT22;63564;46.840;18.336;2023-04-24T02:51:44;14.11;62.02
75010;DHT22;63564;46.840;18.336;2023-04-24T02:54:44;14.09;61.16
75010;DHT22;63564;46.840;18.336;2023-04-24T02:57:44;14.14;61.54
75010;DHT22;63564;46.840;18.336;2023-04-24T03:00:45;14.11;61.93
75010;DHT22;63564;46.840;18.336;2023-04-24T03:03:46;14.19;61.39
75010;DHT22;63564;46.840;18.336;2023-04-24T03:06:46;14.28;61.81
75010;DHT22;63564;46.840;18.336;2023-04-24T03:09:47;14.25;62.58
75010;DHT22;63564;46.840;18.336;2023-04-24T03:12:48;14.22;62.10
75010;DHT22;63564;46.840;18.336;2023-04-24T03:15:48;14.09;62.60
75010;DHT22;63564;46.840;18.336;2023-04-24T03:18:49;14.04;63.18
75010;DHT22;63564;46.840;18.336;2023-04-24T03:21:49;13.98;63.24
75010;DHT22;63564;46.840;18.336;2023-04-24T03:24:50;13.88;63.52
75010;DHT22;63564;46.840;18.336;2023-04-24T03:27:50;13.92;63.47
75010;DHT22;63564;46.840;18.336;2023-04-24T03:30:51;13.98;63.26
75010;DHT22;63564;46.840;18.336;2023-04-24T03:33:52;13.87;64.20
75010;DHT22;63564;46.840;18.336;2023-04-24T03:36:52;13.81;64.27
75010;DHT22;63564;46.840;18.336;2023-04-24T03:39:52;13.81;64.42
75010;DHT22;63564;46.840;18.336;2023-04-24T03:42:53;13.71;65.86
75010;DHT22;63564;46.840;18.336;2023-04-24T03:45:53;13.75;64.91
75010;DHT22;63564;46.840;18.336;2023-04-24T03:48:54;13.74;64.73
75010;DHT22;63564;46.840;18.336;2023-04-24T03:51:54;13.81;63.91
75010;DHT22;63564;46.840;18.336;2023-04-24T03:54:54;13.91;63.77
75010;DHT22;63564;46.840;18.336;2023-04-24T03:57:55;13.97;63.54
75010;DHT22;63564;46.840;18.336;2023-04-24T04:00:56;14.00;63.51
75010;DHT22;63564;46.840;18.336;2023-04-24T04:03:58;14.02;63.50
75010;DHT22;63564;46.840;18.336;2023-04-24T04:06:58;14.15;63.23
75010;DHT22;63564;46.840;18.336;2023-04-24T04:10:01;14.17;63.15
75010;DHT22;63564;46.840;18.336;2023-04-24T04:13:02;14.28;62.89
75010;DHT22;63564;46.840;18.336;2023-04-24T04:16:02;14.29;63.04
75010;DHT22;63564;46.840;18.336;2023-04-24T04:19:03;14.40;62.50
75010;DHT22;63564;46.840;18.336;2023-04-24T04:22:03;14.36;63.14
75010;DHT22;63564;46.840;18.336;2023-04-24T04:25:04;14.30;63.58
75010;DHT22;63564;46.840;18.336;2023-04-24T04:28:04;14.32;63.89
75010;DHT22;63564;46.840;18.336;2023-04-24T04:31:06;14.35;64.83
75010;DHT22;63564;46.840;18.336;2023-04-24T04:34:07;14.40;63.75
75010;DHT22;63564;46.840;18.336;2023-04-24T04:37:08;14.40;64.41
75010;DHT22;63564;46.840;18.336;2023-04-24T04:40:09;14.42;65.56
75010;DHT22;63564;46.840;18.336;2023-04-24T04:43:12;14.30;66.26
75010;DHT22;63564;46.840;18.336;2023-04-24T04:46:16;14.14;67.20
75010;DHT22;63564;46.840;18.336;2023-04-24T04:49:16;14.17;66.74
75010;DHT22;63564;46.840;18.336;2023-04-24T04:52:17;14.26;66.10
75010;DHT22;63564;46.840;18.336;2023-04-24T04:55:18;14.33;66.94
75010;DHT22;63564;46.840;18.336;2023-04-24T04:58:20;14.46;66.69
75010;DHT22;63564;46.840;18.336;2023-04-24T05:01:20;14.55;65.57
75010;DHT22;63564;46.840;18.336;2023-04-24T05:04:21;14.50;67.16
75010;DHT22;63564;46.840;18.336;2023-04-24T05:07:21;14.49;67.28
75010;DHT22;63564;46.840;18.336;2023-04-24T05:10:22;14.69;65.96
75010;DHT22;63564;46.840;18.336;2023-04-24T05:13:22;14.66;66.92
75010;DHT22;63564;46.840;18.336;2023-04-24T05:16:23;14.81;65.49
75010;DHT22;63564;46.840;18.336;2023-04-24T05:19:23;14.76;66.56
75010;DHT22;63564;46.840;18.336;2023-04-24T05:22:23;14.81;65.99
75010;DHT22;63564;46.840;18.336;2023-04-24T05:25:24;14.83;66.97
75010;DHT22;63564;46.840;18.336;2023-04-24T05:28:24;14.83;66.95
75010;DHT22;63564;46.840;18.336;2023-04-24T05:31:28;14.88;67.30
75010;DHT22;63564;46.840;18.336;2023-04-24T05:34:28;14.81;67.88
75010;DHT22;63564;46.840;18.336;2023-04-24T05:37:29;14.66;67.23
75010;DHT22;63564;46.840;18.336;2023-04-24T05:40:29;14.66;67.49
75010;DHT22;63564;46.840;18.336;2023-04-24T05:43:30;14.84;67.69
75010;DHT22;63564;46.840;18.336;2023-04-24T05:46:30;14.90;67.83
75010;DHT22;63564;46.840;18.336;2023-04-24T05:49:30;14.66;67.05
75010;DHT22;63564;46.840;18.336;2023-04-24T05:52:31;14.81;66.39
75010;DHT22;63564;46.840;18.336;2023-04-24T05:55:31;14.91;67.18
75010;DHT22;63564;46.840;18.336;2023-04-24T05:58:31;14.95;67.02
75010;DHT22;63564;46.840;18.336;2023-04-24T06:01:32;15.07;66.17
75010;DHT22;63564;46.840;18.336;2023-04-24T06:04:32;15.34;65.59
75010;DHT22;63564;46.840;18.336;2023-04-24T06:07:33;15.46;66.32
75010;DHT22;63564;46.840;18.336;2023-04-24T06:10:33;15.52;66.10
75010;DHT22;63564;46.840;18.336;2023-04-24T06:13:34;15.48;66.28
75010;DHT22;63564;46.840;18.336;2023-04-24T06:16:34;15.62;66.10
75010;DHT22;63564;46.840;18.336;2023-04-24T06:19:35;15.65;67.04
75010;DHT22;63564;46.840;18.336;2023-04-24T06:22:35;15.55;67.13
75010;DHT22;63564;46.840;18.336;2023-04-24T06:25:35;15.63;67.30
75010;DHT22;63564;46.840;18.336;2023-04-24T06:28:36;15.78;67.58
75010;DHT22;63564;46.840;18.336;2023-04-24T06:31:36;15.70;68.64
75010;DHT22;63564;46.840;18.336;2023-04-24T06:34:37;15.62;68.79
75010;DHT22;63564;46.840;18.336;2023-04-24T06:37:39;15.52;69.15
75010;DHT22;63564;46.840;18.336;2023-04-24T06:40:39;15.63;68.03
75010;DHT22;63564;46.840;18.336;2023-04-24T06:43:40;15.80;66.92
75010;DHT22;63564;46.840;18.336;2023-04-24T06:46:41;15.73;67.99
75010;DHT22;63564;46.840;18.336;2023-04-24T06:49:42;15.62;68.30
75010;DHT22;63564;46.840;18.336;2023-04-24T06:52:42;15.65;68.17
75010;DHT22;63564;46.840;18.336;2023-04-24T06:55:43;15.80;66.54
75010;DHT22;63564;46.840;18.336;2023-04-24T06:58:46;15.85;66.63
75010;DHT22;63564;46.840;18.336;2023-04-24T07:01:46;16.25;66.26
75010;DHT22;63564;46.840;18.336;2023-04-24T07:04:47;16.16;66.26
75010;DHT22;63564;46.840;18.336;2023-04-24T07:07:47;16.45;65.46
75010;DHT22;63564;46.840;18.336;2023-04-24T07:10:49;16.61;65.10
75010;DHT22;63564;46.840;18.336;2023-04-24T07:13:51;16.65;63.73
75010;DHT22;63564;46.840;18.336;2023-04-24T07:16:51;16.56;65.25
75010;DHT22;63564;46.840;18.336;2023-04-24T07:19:51;16.66;64.97
75010;DHT22;63564;46.840;18.336;2023-04-24T07:22:52;16.49;63.86
75010;DHT22;63564;46.840;18.336;2023-04-24T07:25:54;16.86;64.26
75010;DHT22;63564;46.840;18.336;2023-04-24T07:28:54;16.77;65.18
75010;DHT22;63564;46.840;18.336;2023-04-24T07:31:55;17.14;64.67
75010;DHT22;63564;46.840;18.336;2023-04-24T07:34:56;16.99;63.68
75010;DHT22;63564;46.840;18.336;2023-04-24T07:37:57;17.02;66.17
75010;DHT22;63564;46.840;18.336;2023-04-24T07:40:57;16.94;64.06
75010;DHT22;63564;46.840;18.336;2023-04-24T07:43:58;17.47;69.90
75010;DHT22;63564;46.840;18.336;2023-04-24T07:46:58;17.54;63.43
75010;DHT22;63564;46.840;18.336;2023-04-24T07:49:59;17.27;62.15
75010;DHT22;63564;46.840;18.336;2023-04-24T07:52:59;17.16;61.22
75010;DHT22;63564;46.840;18.336;2023-04-24T07:56:00;17.52;60.87
75010;DHT22;63564;46.840;18.336;2023-04-24T07:59:00;17.59;60.11
75010;DHT22;63564;46.840;18.336;2023-04-24T08:02:01;17.79;60.16
75010;DHT22;63564;46.840;18.336;2023-04-24T08:05:02;17.58;60.51
75010;DHT22;63564;46.840;18.336;2023-04-24T08:08:03;17.67;60.59
75010;DHT22;63564;46.840;18.336;2023-04-24T08:11:04;17.52;60.01
75010;DHT22;63564;46.840;18.336;2023-04-24T08:14:04;17.52;59.26
75010;DHT22;63564;46.840;18.336;2023-04-24T08:17:05;17.45;59.38
75010;DHT22;63564;46.840;18.336;2023-04-24T08:20:08;17.54;57.99
75010;DHT22;63564;46.840;18.336;2023-04-24T08:23:13;17.82;57.96
75010;DHT22;63564;46.840;18.336;2023-04-24T08:26:13;17.89;57.05
75010;DHT22;63564;46.840;18.336;2023-04-24T08:29:14;17.75;57.25
75010;DHT22;63564;46.840;18.336;2023-04-24T08:32:14;17.99;56.64
75010;DHT22;63564;46.840;18.336;2023-04-24T08:35:15;18.23;56.99
75010;DHT22;63564;46.840;18.336;2023-04-24T08:38:16;18.34;55.90
75010;DHT22;63564;46.840;18.336;2023-04-24T08:41:17;18.38;56.44
75010;DHT22;63564;46.840;18.336;2023-04-24T08:44:19;18.24;56.34
75010;DHT22;63564;46.840;18.336;2023-04-24T08:47:20;18.45;55.62
75010;DHT22;63564;46.840;18.336;2023-04-24T08:50:21;18.45;54.76
75010;DHT22;63564;46.840;18.336;2023-04-24T08:53:24;18.85;56.03
75010;DHT22;63564;46.840;18.336;2023-04-24T08:56:26;19.24;54.69
75010;DHT22;63564;46.840;18.336;2023-04-24T08:59:31;19.06;53.82
75010;DHT22;63564;46.840;18.336;2023-04-24T09:02:31;18.78;53.31
75010;DHT22;63564;46.840;18.336;2023-04-24T09:05:34;18.62;54.86
75010;DHT22;63564;46.840;18.336;2023-04-24T09:08:35;18.98;56.44
75010;DHT22;63564;46.840;18.336;2023-04-24T09:11:36;19.09;55.17
75010;DHT22;63564;46.840;18.336;2023-04-24T09:14:37;18.89;51.79
75010;DHT22;63564;46.840;18.336;2023-04-24T09:17:45;18.96;52.10
75010;DHT22;63564;46.840;18.336;2023-04-24T09:21:11;18.96;51.97
75010;DHT22;63564;46.840;18.336;2023-04-24T09:24:18;18.94;52.81
75010;DHT22;63564;46.840;18.336;2023-04-24T09:27:23;19.08;53.20
75010;DHT22;63564;46.840;18.336;2023-04-24T09:30:23;18.95;52.33
75010;DHT22;63564;46.840;18.336;2023-04-24T09:33:24;19.29;51.33
75010;DHT22;63564;46.840;18.336;2023-04-24T09:36:38;19.16;51.66
75010;DHT22;63564;46.840;18.336;2023-04-24T09:39:39;19.85;52.03
75010;DHT22;63564;46.840;18.336;2023-04-24T09:42:43;20.19;51.69
75010;DHT22;63564;46.840;18.336;2023-04-24T09:45:44;20.09;51.09
75010;DHT22;63564;46.840;18.336;2023-04-24T09:48:44;19.96;51.98
75010;DHT22;63564;46.840;18.336;2023-04-24T09:51:45;20.06;53.69
75010;DHT22;63564;46.840;18.336;2023-04-24T09:54:52;19.54;54.37
75010;DHT22;63564;46.840;18.336;2023-04-24T09:58:01;19.31;54.65
75010;DHT22;63564;46.840;18.336;2023-04-24T10:01:01;19.40;54.49
75010;DHT22;63564;46.840;18.336;2023-04-24T10:04:02;19.20;54.81
75010;DHT22;63564;46.840;18.336;2023-04-24T10:07:03;19.03;55.30
75010;DHT22;63564;46.840;18.336;2023-04-24T10:10:07;18.96;54.59
75010;DHT22;63564;46.840;18.336;2023-04-24T10:13:09;18.85;55.42
75010;DHT22;63564;46.840;18.336;2023-04-24T10:16:10;18.71;53.54
75010;DHT22;63564;46.840;18.336;2023-04-24T10:19:10;18.55;53.79
75010;DHT22;63564;46.840;18.336;2023-04-24T10:22:14;18.91;54.51
75010;DHT22;63564;46.840;18.336;2023-04-24T10:25:20;19.16;54.25
75010;DHT22;63564;46.840;18.336;2023-04-24T10:28:22;19.49;53.67
75010;DHT22;63564;46.840;18.336;2023-04-24T10:31:25;19.34;55.18
75010;DHT22;63564;46.840;18.336;2023-04-24T10:34:25;18.96;53.96
75010;DHT22;63564;46.840;18.336;2023-04-24T10:37:26;18.58;55.97
75010;DHT22;63564;46.840;18.336;2023-04-24T10:40:31;18.53;55.91
75010;DHT22;63564;46.840;18.336;2023-04-24T10:43:34;18.67;55.81
75010;DHT22;63564;46.840;18.336;2023-04-24T10:46:35;18.72;54.88
75010;DHT22;63564;46.840;18.336;2023-04-24T10:49:36;18.76;56.13
75010;DHT22;63564;46.840;18.336;2023-04-24T10:52:47;18.78;54.60
75010;DHT22;63564;46.840;18.336;2023-04-24T10:55:56;19.18;56.43
75010;DHT22;63564;46.840;18.336;2023-04-24T10:58:57;18.37;55.84
75010;DHT22;63564;46.840;18.336;2023-04-24T11:01:58;18.14;57.36
75010;DHT22;63564;46.840;18.336;2023-04-24T11:05:03;18.10;59.85
75010;DHT22;63564;46.840;18.336;2023-04-24T11:08:14;18.07;62.69
75010;DHT22;63564;46.840;18.336;2023-04-24T11:11:17;17.65;65.41
75010;DHT22;63564;46.840;18.336;2023-04-24T11:14:18;17.24;66.63
75010;DHT22;63564;46.840;18.336;2023-04-24T11:20:42;16.94;67.31
75010;DHT22;63564;46.840;18.336;2023-04-24T11:23:42;16.82;68.72
75010;DHT22;63564;46.840;18.336;2023-04-24T11:26:44;16.76;69.93
75010;DHT22;63564;46.840;18.336;2023-04-24T11:29:58;16.96;69.46
75010;DHT22;63564;46.840;18.336;2023-04-24T11:33:03;17.10;69.78
75010;DHT22;63564;46.840;18.336;2023-04-24T11:36:04;16.92;68.24
75010;DHT22;63564;46.840;18.336;2023-04-24T11:39:05;17.03;64.99
75010;DHT22;63564;46.840;18.336;2023-04-24T11:42:07;17.19;65.85
75010;DHT22;63564;46.840;18.336;2023-04-24T11:45:08;16.73;68.91
75010;DHT22;63564;46.840;18.336;2023-04-24T11:48:10;16.61;69.57
75010;DHT22;63564;46.840;18.336;2023-04-24T11:51:12;16.72;69.85
75010;DHT22;63564;46.840;18.336;2023-04-24T11:54:12;16.83;69.05
75010;DHT22;63564;46.840;18.336;2023-04-24T11:57:13;17.04;68.06
75010;DHT22;63564;46.840;18.336;2023-04-24T12:00:21;17.07;68.06
75010;DHT22;63564;46.840;18.336;2023-04-24T12:03:21;17.10;67.72
75010;DHT22;63564;46.840;18.336;2023-04-24T12:06:22;16.97;66.46
75010;DHT22;63564;46.840;18.336;2023-04-24T12:09:22;17.23;66.31
75010;DHT22;63564;46.840;18.336;2023-04-24T12:12:25;17.30;65.69
75010;DHT22;63564;46.840;18.336;2023-04-24T12:15:26;17.06;66.90
75010;DHT22;63564;46.840;18.336;2023-04-24T12:18:27;16.99;67.18
75010;DHT22;63564;46.840;18.336;2023-04-24T12:21:27;16.59;67.93
75010;DHT22;63564;46.840;18.336;2023-04-24T12:24:30;16.51;66.51
75010;DHT22;63564;46.840;18.336;2023-04-24T12:27:32;16.48;65.70
75010;DHT22;63564;46.840;18.336;2023-04-24T12:30:48;16.49;66.16
75010;DHT22;63564;46.840;18.336;2023-04-24T12:33:49;16.52;65.01
75010;DHT22;63564;46.840;18.336;2023-04-24T12:36:49;16.55;66.37
75010;DHT22;63564;46.840;18.336;2023-04-24T12:40:09;16.62;66.68
75010;DHT22;63564;46.840;18.336;2023-04-24T12:43:17;16.72;63.51
75010;DHT22;63564;46.840;18.336;2023-04-24T12:46:18;16.93;63.63
75010;DHT22;63564;46.840;18.336;2023-04-24T12:49:19;16.96;62.58
75010;DHT22;63564;46.840;18.336;2023-04-24T12:52:19;17.04;62.26
75010;DHT22;63564;46.840;18.336;2023-04-24T12:55:23;17.23;62.16
75010;DHT22;63564;46.840;18.336;2023-04-24T12:58:24;17.19;62.30
75010;DHT22;63564;46.840;18.336;2023-04-24T13:01:24;17.35;62.81
75010;DHT22;63564;46.840;18.336;2023-04-24T13:04:25;17.58;63.25
75010;DHT22;63564;46.840;18.336;2023-04-24T13:07:26;17.64;62.34
75010;DHT22;63564;46.840;18.336;2023-04-24T13:10:27;17.89;61.55
75010;DHT22;63564;46.840;18.336;2023-04-24T13:13:27;17.58;60.91
75010;DHT22;63564;46.840;18.336;2023-04-24T13:16:28;17.49;61.27
75010;DHT22;63564;46.840;18.336;2023-04-24T13:19:28;17.58;61.69
75010;DHT22;63564;46.840;18.336;2023-04-24T13:22:29;17.30;63.36
75010;DHT22;63564;46.840;18.336;2023-04-24T13:25:35;17.14;64.27
75010;DHT22;63564;46.840;18.336;2023-04-24T13:28:35;16.97;65.67
75010;DHT22;63564;46.840;18.336;2023-04-24T13:31:36;16.73;66.07
75010;DHT22;63564;46.840;18.336;2023-04-24T13:34:36;16.61;68.78
75010;DHT22;63564;46.840;18.336;2023-04-24T13:37:36;16.16;71.42
75010;DHT22;63564;46.840;18.336;2023-04-24T13:40:37;15.96;72.13
75010;DHT22;63564;46.840;18.336;2023-04-24T13:43:37;16.00;72.79
75010;DHT22;63564;46.840;18.336;2023-04-24T13:46:38;15.94;74.11
75010;DHT22;63564;46.840;18.336;2023-04-24T13:49:38;15.97;74.40
75010;DHT22;63564;46.840;18.336;2023-04-24T13:52:38;15.83;75.65
75010;DHT22;63564;46.840;18.336;2023-04-24T13:55:39;15.69;75.71
75010;DHT22;63564;46.840;18.336;2023-04-24T13:58:40;15.67;76.96
75010;DHT22;63564;46.840;18.336;2023-04-24T14:01:40;15.69;76.85
75010;DHT22;63564;46.840;18.336;2023-04-24T14:04:41;15.70;75.46
75010;DHT22;63564;46.840;18.336;2023-04-24T14:07:41;15.59;75.81
75010;DHT22;63564;46.840;18.336;2023-04-24T14:10:42;15.78;74.32
75010;DHT22;63564;46.840;18.336;2023-04-24T14:13:43;15.91;73.75
75010;DHT22;63564;46.840;18.336;2023-04-24T14:16:43;16.10;73.30
75010;DHT22;63564;46.840;18.336;2023-04-24T14:19:44;15.94;73.82
75010;DHT22;63564;46.840;18.336;2023-04-24T14:22:44;15.74;73.87
75010;DHT22;63564;46.840;18.336;2023-04-24T14:25:44;15.76;74.38
75010;DHT22;63564;46.840;18.336;2023-04-24T14:28:45;15.85;75.71
75010;DHT22;63564;46.840;18.336;2023-04-24T14:31:45;15.63;76.16
75010;DHT22;63564;46.840;18.336;2023-04-24T14:34:46;15.59;76.51
75010;DHT22;63564;46.840;18.336;2023-04-24T14:37:46;15.43;77.51
75010;DHT22;63564;46.840;18.336;2023-04-24T14:40:48;15.39;79.27
75010;DHT22;63564;46.840;18.336;2023-04-24T14:43:48;15.27;79.93
75010;DHT22;63564;46.840;18.336;2023-04-24T14:46:49;15.15;80.20
75010;DHT22;63564;46.840;18.336;2023-04-24T14:49:50;15.08;80.62
75010;DHT22;63564;46.840;18.336;2023-04-24T14:52:50;15.12;81.42
75010;DHT22;63564;46.840;18.336;2023-04-24T14:55:50;15.17;81.95
75010;DHT22;63564;46.840;18.336;2023-04-24T14:58:51;15.18;82.07
75010;DHT22;63564;46.840;18.336;2023-04-24T15:01:51;15.28;83.88
75010;DHT22;63564;46.840;18.336;2023-04-24T15:04:52;15.11;84.21
75010;DHT22;63564;46.840;18.336;2023-04-24T15:07:53;15.20;85.04
75010;DHT22;63564;46.840;18.336;2023-04-24T15:10:53;15.14;85.42
75010;DHT22;63564;46.840;18.336;2023-04-24T15:13:54;15.01;86.25
75010;DHT22;63564;46.840;18.336;2023-04-24T15:16:54;14.25;86.57
75010;DHT22;63564;46.840;18.336;2023-04-24T15:19:55;14.24;86.95
75010;DHT22;63564;46.840;18.336;2023-04-24T15:22:55;14.02;86.12
75010;DHT22;63564;46.840;18.336;2023-04-24T15:25:56;14.01;85.97
75010;DHT22;63564;46.840;18.336;2023-04-24T15:28:57;13.87;86.41
75010;DHT22;63564;46.840;18.336;2023-04-24T15:31:58;13.87;86.17
75010;DHT22;63564;46.840;18.336;2023-04-24T15:34:58;13.74;87.81
75010;DHT22;63564;46.840;18.336;2023-04-24T15:37:59;13.67;88.08
75010;DHT22;63564;46.840;18.336;2023-04-24T15:40:59;13.42;90.42
75010;DHT22;63564;46.840;18.336;2023-04-24T15:44:00;13.39;89.85
75010;DHT22;63564;46.840;18.336;2023-04-24T15:47:00;13.27;90.86
75010;DHT22;63564;46.840;18.336;2023-04-24T15:50:05;13.38;89.67
75010;DHT22;63564;46.840;18.336;2023-04-24T15:53:08;13.30;91.32
75010;DHT22;63564;46.840;18.336;2023-04-24T15:56:08;13.27;91.47
75010;DHT22;63564;46.840;18.336;2023-04-24T15:59:23;13.38;90.09
75010;DHT22;63564;46.840;18.336;2023-04-24T16:02:23;13.54;89.88
75010;DHT22;63564;46.840;18.336;2023-04-24T16:05:24;13.47;91.95
75010;DHT22;63564;46.840;18.336;2023-04-24T16:08:25;13.54;90.85
75010;DHT22;63564;46.840;18.336;2023-04-24T16:11:25;13.35;93.03
75010;DHT22;63564;46.840;18.336;2023-04-24T16:14:26;13.26;91.59
75010;DHT22;63564;46.840;18.336;2023-04-24T16:17:26;13.30;91.52
75010;DHT22;63564;46.840;18.336;2023-04-24T16:20:26;13.40;90.76
75010;DHT22;63564;46.840;18.336;2023-04-24T16:23:27;13.32;91.71
75010;DHT22;63564;46.840;18.336;2023-04-24T16:26:27;13.12;91.23
75010;DHT22;63564;46.840;18.336;2023-04-24T16:29:29;13.16;92.43
75010;DHT22;63564;46.840;18.336;2023-04-24T16:32:29;13.18;92.35
75010;DHT22;63564;46.840;18.336;2023-04-24T16:35:30;13.15;91.71
75010;DHT22;63564;46.840;18.336;2023-04-24T16:38:30;13.26;92.01
75010;DHT22;63564;46.840;18.336;2023-04-24T16:41:31;13.20;92.00
75010;DHT22;63564;46.840;18.336;2023-04-24T16:44:31;13.26;91.90
75010;DHT22;63564;46.840;18.336;2023-04-24T16:47:32;13.25;91.96
75010;DHT22;63564;46.840;18.336;2023-04-24T16:50:32;13.16;92.05
75010;DHT22;63564;46.840;18.336;2023-04-24T16:53:33;13.19;92.58
75010;DHT22;63564;46.840;18.336;2023-04-24T16:56:33;13.11;92.94
75010;DHT22;63564;46.840;18.336;2023-04-24T16:59:34;13.18;92.51
75010;DHT22;63564;46.840;18.336;2023-04-24T17:02:35;13.04;93.18
75010;DHT22;63564;46.840;18.336;2023-04-24T17:05:35;12.98;93.67
75010;DHT22;63564;46.840;18.336;2023-04-24T17:08:35;12.91;94.34
75010;DHT22;63564;46.840;18.336;2023-04-24T17:11:36;12.89;94.75
75010;DHT22;63564;46.840;18.336;2023-04-24T17:14:36;12.77;94.27
75010;DHT22;63564;46.840;18.336;2023-04-24T17:17:37;12.78;94.21
75010;DHT22;63564;46.840;18.336;2023-04-24T17:20:38;12.88;94.04
75010;DHT22;63564;46.840;18.336;2023-04-24T17:23:38;12.94;94.14
75010;DHT22;63564;46.840;18.336;2023-04-24T17:26:39;12.91;94.23
75010;DHT22;63564;46.840;18.336;2023-04-24T17:29:39;12.81;94.66
75010;DHT22;63564;46.840;18.336;2023-04-24T17:32:40;12.77;94.30
75010;DHT22;63564;46.840;18.336;2023-04-24T17:35:41;12.71;94.05
75010;DHT22;63564;46.840;18.336;2023-04-24T17:38:41;12.68;93.99
75010;DHT22;63564;46.840;18.336;2023-04-24T17:41:42;12.61;94.09
75010;DHT22;63564;46.840;18.336;2023-04-24T17:44:42;12.61;94.39
75010;DHT22;63564;46.840;18.336;2023-04-24T17:47:43;12.60;94.58
75010;DHT22;63564;46.840;18.336;2023-04-24T17:50:44;12.57;95.14
75010;DHT22;63564;46.840;18.336;2023-04-24T17:53:45;12.54;95.19
75010;DHT22;63564;46.840;18.336;2023-04-24T17:56:47;12.60;94.88
75010;DHT22;63564;46.840;18.336;2023-04-24T17:59:48;12.77;93.93
75010;DHT22;63564;46.840;18.336;2023-04-24T18:02:50;12.47;95.26
75010;DHT22;63564;46.840;18.336;2023-04-24T18:05:53;12.50;95.56
75010;DHT22;63564;46.840;18.336;2023-04-24T18:08:53;12.46;95.98
75010;DHT22;63564;46.840;18.336;2023-04-24T18:11:54;12.39;96.25
75010;DHT22;63564;46.840;18.336;2023-04-24T18:14:56;12.40;95.46
75010;DHT22;63564;46.840;18.336;2023-04-24T18:17:56;12.34;95.75
75010;DHT22;63564;46.840;18.336;2023-04-24T18:20:57;12.26;97.14
75010;DHT22;63564;46.840;18.336;2023-04-24T18:23:58;12.22;97.15
75010;DHT22;63564;46.840;18.336;2023-04-24T18:26:59;12.28;96.78
75010;DHT22;63564;46.840;18.336;2023-04-24T18:30:01;12.22;96.52
75010;DHT22;63564;46.840;18.336;2023-04-24T18:33:02;12.11;98.14
75010;DHT22;63564;46.840;18.336;2023-04-24T18:36:03;12.01;98.11
75010;DHT22;63564;46.840;18.336;2023-04-24T18:39:04;12.05;98.10
75010;DHT22;63564;46.840;18.336;2023-04-24T18:42:04;12.05;98.26
75010;DHT22;63564;46.840;18.336;2023-04-24T18:45:05;12.12;98.14
75010;DHT22;63564;46.840;18.336;2023-04-24T18:48:06;12.03;98.38
75010;DHT22;63564;46.840;18.336;2023-04-24T18:51:06;12.05;98.61